sensor_id;sensor_type;location;lat;lon;timestamp;pressure;altitude;pressure_sealevel;temperature;humidity
11415;BME280;5763;42.714;23.244;2023-04-06T00:00:06;94341.63;;;2.91;59.59
11415;BME280;5763;42.714;23.244;2023-04-06T00:02:34;94345.84;;;2.92;59.74
11415;BME280;5763;42.714;23.244;2023-04-06T00:05:01;94330.16;;;2.84;60.10
11415;BME280;5763;42.714;23.244;2023-04-06T00:07:27;94337.44;;;2.87;60.01
11415;BME280;5763;42.714;23.244;2023-04-06T00:09:55;94340.69;;;2.75;60.56
11415;BME280;5763;42.714;23.244;2023-04-06T00:12:22;94321.25;;;2.60;60.83
11415;BME280;5763;42.714;23.244;2023-04-06T00:14:50;94327.25;;;2.71;60.81
11415;BME280;5763;42.714;23.244;2023-04-06T00:17:17;94324.16;;;2.73;60.99
11415;BME280;5763;42.714;23.244;2023-04-06T00:19:44;94318.38;;;2.71;60.56
11415;BME280;5763;42.714;23.244;2023-04-06T00:22:11;94324.19;;;2.69;60.63
11415;BME280;5763;42.714;23.244;2023-04-06T00:24:38;94315.06;;;2.60;60.60
11415;BME280;5763;42.714;23.244;2023-04-06T00:27:04;94310.50;;;2.57;60.79
11415;BME280;5763;42.714;23.244;2023-04-06T00:29:31;94311.34;;;2.50;61.06
11415;BME280;5763;42.714;23.244;2023-04-06T00:31:59;94300.56;;;2.50;61.18
11415;BME280;5763;42.714;23.244;2023-04-06T00:34:26;94303.59;;;2.52;61.39
11415;BME280;5763;42.714;23.244;2023-04-06T00:36:53;94310.13;;;2.55;61.48
11415;BME280;5763;42.714;23.244;2023-04-06T00:39:20;94296.09;;;2.63;61.52
11415;BME280;5763;42.714;23.244;2023-04-06T00:41:51;94295.69;;;2.65;61.27
11415;BME280;5763;42.714;23.244;2023-04-06T00:44:18;94292.59;;;2.66;61.44
11415;BME280;5763;42.714;23.244;2023-04-06T00:46:45;94298.13;;;2.59;61.49
11415;BME280;5763;42.714;23.244;2023-04-06T00:49:13;94299.84;;;2.46;62.31
11415;BME280;5763;42.714;23.244;2023-04-06T00:51:40;94292.13;;;2.45;62.34
11415;BME280;5763;42.714;23.244;2023-04-06T00:54:07;94281.78;;;2.40;62.49
11415;BME280;5763;42.714;23.244;2023-04-06T00:56:35;94293.88;;;2.32;62.72
11415;BME280;5763;42.714;23.244;2023-04-06T00:59:02;94287.66;;;2.35;62.70
11415;BME280;5763;42.714;23.244;2023-04-06T01:01:29;94286.84;;;2.38;61.87
11415;BME280;5763;42.714;23.244;2023-04-06T01:03:58;94279.06;;;2.43;61.83
11415;BME280;5763;42.714;23.244;2023-04-06T01:06:26;94289.22;;;2.32;61.77
11415;BME280;5763;42.714;23.244;2023-04-06T01:08:53;94297.19;;;2.43;61.97
11415;BME280;5763;42.714;23.244;2023-04-06T01:11:20;94291.34;;;2.48;61.88
11415;BME280;5763;42.714;23.244;2023-04-06T01:13:47;94275.78;;;2.55;61.82
11415;BME280;5763;42.714;23.244;2023-04-06T01:16:14;94280.28;;;2.65;61.34
11415;BME280;5763;42.714;23.244;2023-04-06T01:18:41;94272.41;;;2.74;60.90
11415;BME280;5763;42.714;23.244;2023-04-06T01:21:08;94271.50;;;2.84;60.92
11415;BME280;5763;42.714;23.244;2023-04-06T01:23:43;94286.53;;;2.85;60.30
11415;BME280;5763;42.714;23.244;2023-04-06T01:26:10;94274.59;;;2.83;60.55
11415;BME280;5763;42.714;23.244;2023-04-06T01:28:37;94275.66;;;2.89;60.27
11415;BME280;5763;42.714;23.244;2023-04-06T01:31:04;94280.75;;;2.83;60.35
11415;BME280;5763;42.714;23.244;2023-04-06T01:33:31;94273.16;;;2.75;60.51
11415;BME280;5763;42.714;23.244;2023-04-06T01:35:57;94271.06;;;2.86;60.44
11415;BME280;5763;42.714;23.244;2023-04-06T01:38:25;94265.16;;;2.94;60.97
11415;BME280;5763;42.714;23.244;2023-04-06T01:40:53;94256.56;;;2.99;61.18
11415;BME280;5763;42.714;23.244;2023-04-06T01:43:21;94260.38;;;3.02;60.90
11415;BME280;5763;42.714;23.244;2023-04-06T01:45:48;94263.44;;;3.04;61.40
11415;BME280;5763;42.714;23.244;2023-04-06T01:48:15;94251.78;;;3.07;61.70
11415;BME280;5763;42.714;23.244;2023-04-06T01:50:41;94253.28;;;3.11;61.97
11415;BME280;5763;42.714;23.244;2023-04-06T01:53:08;94264.78;;;3.15;61.91
11415;BME280;5763;42.714;23.244;2023-04-06T01:55:35;94254.09;;;3.08;62.11
11415;BME280;5763;42.714;23.244;2023-04-06T01:58:03;94248.50;;;3.19;61.43
11415;BME280;5763;42.714;23.244;2023-04-06T02:00:30;94245.63;;;3.06;62.23
11415;BME280;5763;42.714;23.244;2023-04-06T02:02:57;94249.16;;;3.26;61.73
11415;BME280;5763;42.714;23.244;2023-04-06T02:05:24;94250.66;;;3.27;61.55
11415;BME280;5763;42.714;23.244;2023-04-06T02:07:51;94249.22;;;3.23;61.19
11415;BME280;5763;42.714;23.244;2023-04-06T02:10:18;94257.47;;;3.35;61.30
11415;BME280;5763;42.714;23.244;2023-04-06T02:12:45;94258.78;;;3.27;62.00
11415;BME280;5763;42.714;23.244;2023-04-06T02:15:13;94253.38;;;3.27;62.70
11415;BME280;5763;42.714;23.244;2023-04-06T02:17:40;94248.66;;;3.31;63.26
11415;BME280;5763;42.714;23.244;2023-04-06T02:20:07;94252.97;;;3.29;63.24
11415;BME280;5763;42.714;23.244;2023-04-06T02:22:34;94252.59;;;3.27;63.52
11415;BME280;5763;42.714;23.244;2023-04-06T02:25:01;94224.09;;;3.03;63.48
11415;BME280;5763;42.714;23.244;2023-04-06T02:27:28;94250.09;;;3.16;64.42
11415;BME280;5763;42.714;23.244;2023-04-06T02:29:55;94249.03;;;3.10;64.14
11415;BME280;5763;42.714;23.244;2023-04-06T02:32:24;94247.16;;;3.07;64.46
11415;BME280;5763;42.714;23.244;2023-04-06T02:34:51;94245.69;;;3.03;64.55
11415;BME280;5763;42.714;23.244;2023-04-06T02:37:17;94249.44;;;3.09;64.08
11415;BME280;5763;42.714;23.244;2023-04-06T02:39:45;94240.56;;;3.08;64.16
11415;BME280;5763;42.714;23.244;2023-04-06T02:42:12;94224.09;;;3.03;63.92
11415;BME280;5763;42.714;23.244;2023-04-06T02:44:40;94250.09;;;3.16;63.18
11415;BME280;5763;42.714;23.244;2023-04-06T02:47:07;94261.25;;;3.18;62.63
11415;BME280;5763;42.714;23.244;2023-04-06T02:49:35;94258.59;;;3.15;62.58
11415;BME280;5763;42.714;23.244;2023-04-06T02:52:02;94244.13;;;3.05;62.60
11415;BME280;5763;42.714;23.244;2023-04-06T02:54:29;94249.38;;;3.12;62.59
11415;BME280;5763;42.714;23.244;2023-04-06T02:56:56;94245.56;;;3.10;62.24
11415;BME280;5763;42.714;23.244;2023-04-06T02:59:23;94250.97;;;3.10;61.80
11415;BME280;5763;42.714;23.244;2023-04-06T03:01:49;94263.59;;;3.16;60.50
11415;BME280;5763;42.714;23.244;2023-04-06T03:04:16;94251.69;;;3.14;59.81
11415;BME280;5763;42.714;23.244;2023-04-06T03:06:44;94247.22;;;3.04;59.91
11415;BME280;5763;42.714;23.244;2023-04-06T03:09:12;94249.63;;;2.98;59.55
11415;BME280;5763;42.714;23.244;2023-04-06T03:11:39;94254.09;;;2.85;60.01
11415;BME280;5763;42.714;23.244;2023-04-06T03:14:06;94239.53;;;2.79;59.98
11415;BME280;5763;42.714;23.244;2023-04-06T03:16:33;94242.91;;;2.87;60.14
11415;BME280;5763;42.714;23.244;2023-04-06T03:18:59;94253.25;;;2.88;60.47
11415;BME280;5763;42.714;23.244;2023-04-06T03:21:26;94245.94;;;2.89;60.50
11415;BME280;5763;42.714;23.244;2023-04-06T03:23:54;94247.19;;;2.84;60.64
11415;BME280;5763;42.714;23.244;2023-04-06T03:26:21;94245.59;;;2.87;60.34
11415;BME280;5763;42.714;23.244;2023-04-06T03:28:48;94258.63;;;2.92;60.64
11415;BME280;5763;42.714;23.244;2023-04-06T03:31:15;94254.44;;;2.87;60.67
11415;BME280;5763;42.714;23.244;2023-04-06T03:33:42;94247.34;;;2.74;60.79
11415;BME280;5763;42.714;23.244;2023-04-06T03:36:09;94239.63;;;2.72;61.15
11415;BME280;5763;42.714;23.244;2023-04-06T03:38:35;94243.41;;;2.78;60.95
11415;BME280;5763;42.714;23.244;2023-04-06T03:41:04;94241.53;;;2.75;61.35
11415;BME280;5763;42.714;23.244;2023-04-06T03:43:30;94248.69;;;2.85;62.89
11415;BME280;5763;42.714;23.244;2023-04-06T03:45:57;94237.34;;;2.94;64.77
11415;BME280;5763;42.714;23.244;2023-04-06T03:48:24;94231.97;;;2.94;65.42
11415;BME280;5763;42.714;23.244;2023-04-06T03:50:51;94240.72;;;3.01;66.50
11415;BME280;5763;42.714;23.244;2023-04-06T03:53:18;94232.59;;;3.01;66.76
11415;BME280;5763;42.714;23.244;2023-04-06T03:55:44;94232.53;;;3.05;67.05
11415;BME280;5763;42.714;23.244;2023-04-06T03:58:13;94223.66;;;3.04;66.85
11415;BME280;5763;42.714;23.244;2023-04-06T04:00:40;94230.88;;;3.11;66.27
11415;BME280;5763;42.714;23.244;2023-04-06T04:03:06;94230.47;;;3.12;66.70
11415;BME280;5763;42.714;23.244;2023-04-06T04:05:33;94237.75;;;3.15;66.71
11415;BME280;5763;42.714;23.244;2023-04-06T04:08:00;94235.69;;;3.23;66.88
11415;BME280;5763;42.714;23.244;2023-04-06T04:10:27;94230.69;;;3.21;66.95
11415;BME280;5763;42.714;23.244;2023-04-06T04:12:54;94229.84;;;3.24;66.86
11415;BME280;5763;42.714;23.244;2023-04-06T04:15:22;94238.44;;;3.19;66.92
11415;BME280;5763;42.714;23.244;2023-04-06T04:17:49;94236.91;;;3.18;66.70
11415;BME280;5763;42.714;23.244;2023-04-06T04:20:16;94233.50;;;3.14;67.22
11415;BME280;5763;42.714;23.244;2023-04-06T04:22:43;94231.03;;;3.23;66.70
11415;BME280;5763;42.714;23.244;2023-04-06T04:25:10;94242.91;;;3.29;66.56
11415;BME280;5763;42.714;23.244;2023-04-06T04:27:36;94236.38;;;3.27;65.90
11415;BME280;5763;42.714;23.244;2023-04-06T04:30:04;94228.25;;;3.27;64.59
11415;BME280;5763;42.714;23.244;2023-04-06T04:32:33;94238.81;;;3.21;62.44
11415;BME280;5763;42.714;23.244;2023-04-06T04:35:00;94241.63;;;3.14;61.65
11415;BME280;5763;42.714;23.244;2023-04-06T04:37:26;94239.34;;;3.13;61.42
11415;BME280;5763;42.714;23.244;2023-04-06T04:39:53;94245.16;;;3.11;61.06
11415;BME280;5763;42.714;23.244;2023-04-06T04:42:20;94252.09;;;3.12;61.16
11415;BME280;5763;42.714;23.244;2023-04-06T04:44:47;94250.19;;;3.09;61.10
11415;BME280;5763;42.714;23.244;2023-04-06T04:47:14;94237.63;;;2.99;61.33
11415;BME280;5763;42.714;23.244;2023-04-06T04:49:42;94236.34;;;3.07;61.68
11415;BME280;5763;42.714;23.244;2023-04-06T04:52:09;94233.50;;;3.14;60.99
11415;BME280;5763;42.714;23.244;2023-04-06T04:54:36;94234.50;;;3.24;60.94
11415;BME280;5763;42.714;23.244;2023-04-06T04:57:03;94237.16;;;3.27;61.05
11415;BME280;5763;42.714;23.244;2023-04-06T04:59:29;94240.63;;;3.28;60.96
11415;BME280;5763;42.714;23.244;2023-04-06T05:01:56;94238.81;;;3.21;60.63
11415;BME280;5763;42.714;23.244;2023-04-06T05:04:23;94254.66;;;3.19;61.08
11415;BME280;5763;42.714;23.244;2023-04-06T05:07:02;94253.03;;;3.25;61.23
11415;BME280;5763;42.714;23.244;2023-04-06T05:09:29;94253.91;;;3.19;61.01
11415;BME280;5763;42.714;23.244;2023-04-06T05:11:56;94247.03;;;3.14;61.29
11415;BME280;5763;42.714;23.244;2023-04-06T05:14:23;94240.56;;;3.08;62.07
11415;BME280;5763;42.714;23.244;2023-04-06T05:16:50;94235.06;;;3.15;62.14
11415;BME280;5763;42.714;23.244;2023-04-06T05:19:17;94245.59;;;3.29;61.75
11415;BME280;5763;42.714;23.244;2023-04-06T05:21:44;94198.66;;;3.00;61.96
11415;BME280;5763;42.714;23.244;2023-04-06T05:24:12;94237.56;;;3.26;62.11
11415;BME280;5763;42.714;23.244;2023-04-06T05:26:39;94244.38;;;3.34;61.93
11415;BME280;5763;42.714;23.244;2023-04-06T05:29:06;94242.06;;;3.32;61.78
11415;BME280;5763;42.714;23.244;2023-04-06T05:31:33;94240.91;;;3.33;62.10
11415;BME280;5763;42.714;23.244;2023-04-06T05:33:59;94245.13;;;3.34;62.19
11415;BME280;5763;42.714;23.244;2023-04-06T05:36:26;94240.41;;;3.38;62.25
11415;BME280;5763;42.714;23.244;2023-04-06T05:38:53;94236.13;;;3.41;62.34
11415;BME280;5763;42.714;23.244;2023-04-06T05:41:23;94230.94;;;3.50;62.98
11415;BME280;5763;42.714;23.244;2023-04-06T05:43:49;94235.78;;;3.58;62.45
11415;BME280;5763;42.714;23.244;2023-04-06T05:46:16;94230.44;;;3.74;62.31
11415;BME280;5763;42.714;23.244;2023-04-06T05:48:43;94239.59;;;3.80;62.49
11415;BME280;5763;42.714;23.244;2023-04-06T05:51:10;94229.25;;;3.75;62.53
11415;BME280;5763;42.714;23.244;2023-04-06T05:53:37;94233.28;;;3.87;62.49
11415;BME280;5763;42.714;23.244;2023-04-06T05:56:04;94227.25;;;3.79;62.87
11415;BME280;5763;42.714;23.244;2023-04-06T05:58:33;94227.16;;;3.83;63.27
11415;BME280;5763;42.714;23.244;2023-04-06T06:01:00;94231.13;;;3.78;63.32
11415;BME280;5763;42.714;23.244;2023-04-06T06:03:28;94236.38;;;3.85;63.51
11415;BME280;5763;42.714;23.244;2023-04-06T06:05:59;94227.72;;;3.94;63.08
11415;BME280;5763;42.714;23.244;2023-04-06T06:08:27;94222.66;;;3.96;63.24
11415;BME280;5763;42.714;23.244;2023-04-06T06:10:53;94230.84;;;3.92;62.17
11415;BME280;5763;42.714;23.244;2023-04-06T06:13:20;94226.88;;;3.97;62.22
11415;BME280;5763;42.714;23.244;2023-04-06T06:15:48;94218.88;;;4.09;61.51
11415;BME280;5763;42.714;23.244;2023-04-06T06:18:15;94224.59;;;3.95;62.19
11415;BME280;5763;42.714;23.244;2023-04-06T06:20:42;94213.47;;;4.09;62.11
11415;BME280;5763;42.714;23.244;2023-04-06T06:23:09;94221.94;;;4.27;61.50
11415;BME280;5763;42.714;23.244;2023-04-06T06:25:36;94229.56;;;4.32;60.82
11415;BME280;5763;42.714;23.244;2023-04-06T06:28:03;94229.75;;;4.41;61.00
11415;BME280;5763;42.714;23.244;2023-04-06T06:30:29;94228.44;;;4.49;60.41
11415;BME280;5763;42.714;23.244;2023-04-06T06:32:57;94224.84;;;4.52;60.08
11415;BME280;5763;42.714;23.244;2023-04-06T06:35:24;94238.91;;;4.47;60.50
11415;BME280;5763;42.714;23.244;2023-04-06T06:37:51;94240.50;;;4.45;60.29
11415;BME280;5763;42.714;23.244;2023-04-06T06:40:18;94223.44;;;4.48;60.60
11415;BME280;5763;42.714;23.244;2023-04-06T06:42:47;94235.34;;;4.34;59.51
11415;BME280;5763;42.714;23.244;2023-04-06T06:45:14;94235.44;;;4.31;59.97
11415;BME280;5763;42.714;23.244;2023-04-06T06:47:41;94239.22;;;4.17;60.54
11415;BME280;5763;42.714;23.244;2023-04-06T06:50:10;94234.41;;;4.25;61.55
11415;BME280;5763;42.714;23.244;2023-04-06T06:52:36;94236.38;;;4.40;61.06
11415;BME280;5763;42.714;23.244;2023-04-06T06:55:04;94239.09;;;4.56;60.35
11415;BME280;5763;42.714;23.244;2023-04-06T06:57:30;94236.81;;;4.71;59.99
11415;BME280;5763;42.714;23.244;2023-04-06T06:59:57;94238.84;;;4.83;60.26
11415;BME280;5763;42.714;23.244;2023-04-06T07:02:25;94238.09;;;4.66;58.76
11415;BME280;5763;42.714;23.244;2023-04-06T07:04:51;94239.09;;;4.72;59.29
11415;BME280;5763;42.714;23.244;2023-04-06T07:07:20;94232.94;;;4.72;58.87
11415;BME280;5763;42.714;23.244;2023-04-06T07:09:46;94242.81;;;4.78;58.97
11415;BME280;5763;42.714;23.244;2023-04-06T07:12:13;94244.19;;;4.86;59.20
11415;BME280;5763;42.714;23.244;2023-04-06T07:14:41;94229.63;;;4.80;58.92
11415;BME280;5763;42.714;23.244;2023-04-06T07:17:08;94241.88;;;4.53;59.61
11415;BME280;5763;42.714;23.244;2023-04-06T07:19:35;94244.59;;;4.69;58.95
11415;BME280;5763;42.714;23.244;2023-04-06T07:22:01;94237.66;;;4.52;58.93
11415;BME280;5763;42.714;23.244;2023-04-06T07:24:31;94236.88;;;4.35;58.47
11415;BME280;5763;42.714;23.244;2023-04-06T07:26:58;94244.78;;;4.46;58.98
11415;BME280;5763;42.714;23.244;2023-04-06T07:29:26;94238.00;;;4.54;58.76
11415;BME280;5763;42.714;23.244;2023-04-06T07:31:53;94236.97;;;4.48;59.06
11415;BME280;5763;42.714;23.244;2023-04-06T07:34:20;94240.19;;;4.59;58.91
11415;BME280;5763;42.714;23.244;2023-04-06T07:36:47;94236.56;;;4.65;59.75
11415;BME280;5763;42.714;23.244;2023-04-06T07:39:14;94239.50;;;4.55;59.19
11415;BME280;5763;42.714;23.244;2023-04-06T07:41:42;94246.41;;;4.75;59.49
11415;BME280;5763;42.714;23.244;2023-04-06T07:44:09;94238.19;;;4.79;58.91
11415;BME280;5763;42.714;23.244;2023-04-06T07:46:36;94236.47;;;4.85;59.08
11415;BME280;5763;42.714;23.244;2023-04-06T07:49:03;94223.69;;;5.01;58.54
11415;BME280;5763;42.714;23.244;2023-04-06T07:51:30;94235.53;;;5.07;58.68
11415;BME280;5763;42.714;23.244;2023-04-06T07:53:57;94240.88;;;4.95;57.71
11415;BME280;5763;42.714;23.244;2023-04-06T07:56:24;94245.69;;;5.03;57.23
11415;BME280;5763;42.714;23.244;2023-04-06T07:58:52;94239.94;;;5.17;56.55
11415;BME280;5763;42.714;23.244;2023-04-06T08:01:20;94236.00;;;5.34;56.47
11415;BME280;5763;42.714;23.244;2023-04-06T08:03:47;94238.38;;;5.32;55.95
11415;BME280;5763;42.714;23.244;2023-04-06T08:06:14;94236.88;;;5.31;55.59
11415;BME280;5763;42.714;23.244;2023-04-06T08:08:41;94233.84;;;5.42;55.11
11415;BME280;5763;42.714;23.244;2023-04-06T08:11:08;94235.31;;;5.46;54.72
11415;BME280;5763;42.714;23.244;2023-04-06T08:13:35;94230.97;;;5.49;56.08
11415;BME280;5763;42.714;23.244;2023-04-06T08:16:04;94241.94;;;5.58;54.92
11415;BME280;5763;42.714;23.244;2023-04-06T08:18:31;94239.34;;;5.54;55.23
11415;BME280;5763;42.714;23.244;2023-04-06T08:20:58;94236.09;;;5.59;54.60
11415;BME280;5763;42.714;23.244;2023-04-06T08:23:25;94242.06;;;5.54;54.15
11415;BME280;5763;42.714;23.244;2023-04-06T08:25:52;94243.72;;;5.64;54.58
11415;BME280;5763;42.714;23.244;2023-04-06T08:28:19;94238.28;;;5.64;53.90
11415;BME280;5763;42.714;23.244;2023-04-06T08:30:46;94234.88;;;5.76;54.53
11415;BME280;5763;42.714;23.244;2023-04-06T08:33:14;94245.56;;;5.83;53.70
11415;BME280;5763;42.714;23.244;2023-04-06T08:35:42;94240.69;;;5.91;53.84
11415;BME280;5763;42.714;23.244;2023-04-06T08:38:08;94246.91;;;5.75;53.23
11415;BME280;5763;42.714;23.244;2023-04-06T08:40:38;94238.13;;;5.71;53.34
11415;BME280;5763;42.714;23.244;2023-04-06T08:43:08;94240.72;;;5.75;53.04
11415;BME280;5763;42.714;23.244;2023-04-06T08:45:37;94246.13;;;5.91;53.94
11415;BME280;5763;42.714;23.244;2023-04-06T08:48:05;94255.03;;;5.75;54.00
11415;BME280;5763;42.714;23.244;2023-04-06T08:50:34;94239.91;;;5.90;53.50
11415;BME280;5763;42.714;23.244;2023-04-06T08:53:01;94243.13;;;6.14;53.02
11415;BME280;5763;42.714;23.244;2023-04-06T08:55:28;94239.97;;;6.15;51.87
11415;BME280;5763;42.714;23.244;2023-04-06T08:57:56;94231.28;;;6.20;51.34
11415;BME280;5763;42.714;23.244;2023-04-06T09:00:24;94244.16;;;6.32;51.11
11415;BME280;5763;42.714;23.244;2023-04-06T09:02:53;94244.34;;;6.25;50.77
11415;BME280;5763;42.714;23.244;2023-04-06T09:05:22;94235.13;;;6.35;50.98
11415;BME280;5763;42.714;23.244;2023-04-06T09:07:52;94236.09;;;6.66;52.09
11415;BME280;5763;42.714;23.244;2023-04-06T09:10:18;94224.56;;;6.62;50.68
11415;BME280;5763;42.714;23.244;2023-04-06T09:12:46;94230.78;;;6.63;50.49
11415;BME280;5763;42.714;23.244;2023-04-06T09:15:20;94231.75;;;6.44;50.15
11415;BME280;5763;42.714;23.244;2023-04-06T09:17:47;94223.06;;;6.61;50.42
11415;BME280;5763;42.714;23.244;2023-04-06T09:20:14;94212.59;;;6.85;50.45
11415;BME280;5763;42.714;23.244;2023-04-06T09:22:42;94224.94;;;7.23;50.84
11415;BME280;5763;42.714;23.244;2023-04-06T09:25:18;94225.53;;;7.40;48.61
11415;BME280;5763;42.714;23.244;2023-04-06T09:27:46;94233.97;;;7.54;47.67
11415;BME280;5763;42.714;23.244;2023-04-06T09:30:14;94236.00;;;7.41;47.93
11415;BME280;5763;42.714;23.244;2023-04-06T09:32:46;94228.91;;;7.44;47.64
11415;BME280;5763;42.714;23.244;2023-04-06T09:35:14;94237.16;;;7.53;47.94
11415;BME280;5763;42.714;23.244;2023-04-06T09:37:41;94221.63;;;7.96;46.25
11415;BME280;5763;42.714;23.244;2023-04-06T09:40:10;94216.03;;;8.21;45.66
11415;BME280;5763;42.714;23.244;2023-04-06T09:42:40;94231.38;;;8.06;47.09
11415;BME280;5763;42.714;23.244;2023-04-06T09:45:08;94225.28;;;7.81;46.54
11415;BME280;5763;42.714;23.244;2023-04-06T09:47:36;94221.97;;;7.64;46.00
11415;BME280;5763;42.714;23.244;2023-04-06T09:50:07;94232.63;;;7.71;45.82
11415;BME280;5763;42.714;23.244;2023-04-06T09:52:38;94217.91;;;7.90;46.04
11415;BME280;5763;42.714;23.244;2023-04-06T09:55:07;94214.50;;;7.99;46.03
11415;BME280;5763;42.714;23.244;2023-04-06T09:57:40;94201.97;;;8.01;45.02
11415;BME280;5763;42.714;23.244;2023-04-06T10:00:11;94222.69;;;8.20;43.81
11415;BME280;5763;42.714;23.244;2023-04-06T10:02:48;94220.56;;;8.03;44.69
11415;BME280;5763;42.714;23.244;2023-04-06T10:05:20;94229.59;;;8.12;44.67
11415;BME280;5763;42.714;23.244;2023-04-06T10:07:50;94221.88;;;8.41;43.87
11415;BME280;5763;42.714;23.244;2023-04-06T10:10:19;94218.94;;;8.27;44.23
11415;BME280;5763;42.714;23.244;2023-04-06T10:12:48;94218.31;;;8.01;44.08
11415;BME280;5763;42.714;23.244;2023-04-06T10:15:15;94213.38;;;7.87;45.16
11415;BME280;5763;42.714;23.244;2023-04-06T10:17:42;94224.50;;;7.80;43.91
11415;BME280;5763;42.714;23.244;2023-04-06T10:20:14;94213.66;;;8.11;43.51
11415;BME280;5763;42.714;23.244;2023-04-06T10:22:46;94213.16;;;8.95;43.87
11415;BME280;5763;42.714;23.244;2023-04-06T10:25:26;94216.44;;;9.29;41.79
11415;BME280;5763;42.714;23.244;2023-04-06T10:28:00;94210.97;;;9.20;41.27
11415;BME280;5763;42.714;23.244;2023-04-06T10:30:28;94194.81;;;8.86;41.37
11415;BME280;5763;42.714;23.244;2023-04-06T10:32:55;94204.34;;;8.82;42.98
11415;BME280;5763;42.714;23.244;2023-04-06T10:35:22;94200.41;;;8.83;42.80
11415;BME280;5763;42.714;23.244;2023-04-06T10:37:59;94161.03;;;8.93;41.19
11415;BME280;5763;42.714;23.244;2023-04-06T10:40:27;94186.41;;;9.29;40.92
11415;BME280;5763;42.714;23.244;2023-04-06T10:42:54;94181.84;;;9.44;42.24
11415;BME280;5763;42.714;23.244;2023-04-06T10:45:25;94178.53;;;9.67;42.37
11415;BME280;5763;42.714;23.244;2023-04-06T10:47:53;94188.25;;;9.68;42.50
11415;BME280;5763;42.714;23.244;2023-04-06T10:50:21;94180.19;;;9.38;40.14
11415;BME280;5763;42.714;23.244;2023-04-06T10:52:58;94184.28;;;9.33;39.96
11415;BME280;5763;42.714;23.244;2023-04-06T10:55:26;94183.09;;;9.34;39.79
11415;BME280;5763;42.714;23.244;2023-04-06T10:57:53;94178.19;;;9.11;41.08
11415;BME280;5763;42.714;23.244;2023-04-06T11:00:20;94180.91;;;9.11;40.54
11415;BME280;5763;42.714;23.244;2023-04-06T11:02:48;94189.75;;;9.24;42.01
11415;BME280;5763;42.714;23.244;2023-04-06T11:05:15;94177.41;;;9.11;42.22
11415;BME280;5763;42.714;23.244;2023-04-06T11:07:44;94173.91;;;9.01;42.52
11415;BME280;5763;42.714;23.244;2023-04-06T11:10:11;94176.63;;;8.92;42.14
11415;BME280;5763;42.714;23.244;2023-04-06T11:12:38;94169.22;;;9.02;40.81
11415;BME280;5763;42.714;23.244;2023-04-06T11:15:05;94166.38;;;9.14;40.81
11415;BME280;5763;42.714;23.244;2023-04-06T11:17:34;94151.97;;;9.23;41.38
11415;BME280;5763;42.714;23.244;2023-04-06T11:20:09;94153.34;;;9.27;41.64
11415;BME280;5763;42.714;23.244;2023-04-06T11:22:36;94154.84;;;9.28;42.23
11415;BME280;5763;42.714;23.244;2023-04-06T11:25:06;94136.81;;;9.22;41.90
11415;BME280;5763;42.714;23.244;2023-04-06T11:27:33;94147.13;;;9.27;42.50
11415;BME280;5763;42.714;23.244;2023-04-06T11:30:01;94153.19;;;9.22;41.72
11415;BME280;5763;42.714;23.244;2023-04-06T11:32:28;94139.69;;;9.36;41.56
11415;BME280;5763;42.714;23.244;2023-04-06T11:34:55;94145.47;;;9.29;41.51
11415;BME280;5763;42.714;23.244;2023-04-06T11:37:26;94149.84;;;9.36;40.73
11415;BME280;5763;42.714;23.244;2023-04-06T11:39:54;94153.66;;;9.29;39.89
11415;BME280;5763;42.714;23.244;2023-04-06T11:42:23;94140.88;;;9.08;41.40
11415;BME280;5763;42.714;23.244;2023-04-06T11:44:50;94134.50;;;8.93;40.25
11415;BME280;5763;42.714;23.244;2023-04-06T11:47:18;94132.66;;;8.81;41.96
11415;BME280;5763;42.714;23.244;2023-04-06T11:49:45;94135.19;;;8.67;41.26
11415;BME280;5763;42.714;23.244;2023-04-06T11:52:17;94130.00;;;8.60;42.78
11415;BME280;5763;42.714;23.244;2023-04-06T11:54:47;94123.38;;;8.61;44.32
11415;BME280;5763;42.714;23.244;2023-04-06T11:57:15;94115.75;;;8.47;44.51
11415;BME280;5763;42.714;23.244;2023-04-06T11:59:42;94129.78;;;8.36;44.68
11415;BME280;5763;42.714;23.244;2023-04-06T12:02:09;94122.22;;;8.40;43.92
11415;BME280;5763;42.714;23.244;2023-04-06T12:04:37;94131.00;;;8.35;44.67
11415;BME280;5763;42.714;23.244;2023-04-06T12:07:04;94131.72;;;8.27;44.55
11415;BME280;5763;42.714;23.244;2023-04-06T12:09:31;94124.19;;;8.09;44.25
11415;BME280;5763;42.714;23.244;2023-04-06T12:12:01;94114.81;;;8.10;44.58
11415;BME280;5763;42.714;23.244;2023-04-06T12:14:28;94115.88;;;8.04;45.01
11415;BME280;5763;42.714;23.244;2023-04-06T12:16:56;94114.84;;;8.19;44.50
11415;BME280;5763;42.714;23.244;2023-04-06T12:19:22;94115.06;;;8.25;43.29
11415;BME280;5763;42.714;23.244;2023-04-06T12:21:51;94111.88;;;8.26;44.22
11415;BME280;5763;42.714;23.244;2023-04-06T12:24:18;94102.97;;;8.04;43.60
11415;BME280;5763;42.714;23.244;2023-04-06T12:26:45;94106.28;;;7.99;44.46
11415;BME280;5763;42.714;23.244;2023-04-06T12:29:13;94116.16;;;8.06;44.86
11415;BME280;5763;42.714;23.244;2023-04-06T12:31:40;94109.66;;;8.03;43.45
11415;BME280;5763;42.714;23.244;2023-04-06T12:34:10;94108.56;;;8.01;43.88
11415;BME280;5763;42.714;23.244;2023-04-06T12:36:37;94109.72;;;7.91;43.58
11415;BME280;5763;42.714;23.244;2023-04-06T12:39:04;94119.19;;;7.77;43.47
11415;BME280;5763;42.714;23.244;2023-04-06T12:41:31;94105.13;;;7.79;43.37
11415;BME280;5763;42.714;23.244;2023-04-06T12:43:58;94106.72;;;7.98;44.22
11415;BME280;5763;42.714;23.244;2023-04-06T12:46:27;94109.34;;;8.01;44.04
11415;BME280;5763;42.714;23.244;2023-04-06T12:48:55;94101.63;;;8.00;45.06
11415;BME280;5763;42.714;23.244;2023-04-06T12:51:24;94096.88;;;7.91;44.63
11415;BME280;5763;42.714;23.244;2023-04-06T12:53:52;94100.00;;;7.81;46.02
11415;BME280;5763;42.714;23.244;2023-04-06T12:56:19;94093.91;;;7.77;45.27
11415;BME280;5763;42.714;23.244;2023-04-06T12:58:46;94098.84;;;7.91;44.54
11415;BME280;5763;42.714;23.244;2023-04-06T13:01:13;94105.31;;;7.84;43.90
11415;BME280;5763;42.714;23.244;2023-04-06T13:03:41;94105.38;;;7.72;44.16
11415;BME280;5763;42.714;23.244;2023-04-06T13:06:09;94094.47;;;7.63;43.86
11415;BME280;5763;42.714;23.244;2023-04-06T13:08:37;94101.16;;;7.71;44.88
11415;BME280;5763;42.714;23.244;2023-04-06T13:11:04;94095.22;;;7.63;44.03